EAI29CM EGPF-EGAC
Flight info
| Callsign | EAI29CM |
|---|---|
| Flight time | 0h 26m |
| Altitude | 14000 |
| Route | TRN P600 BLACA DCT MAGEE |
| Aircraft | AT76/M-SDFGIRY/S |
Departure
| Time | 2026-04-15 09:24 |
|---|---|
| Airport | Glasgow Airport (EGPF) |
Arrival
| Time | 2026-04-15 09:50 |
|---|---|
| Airport | George Best Belfast City Airport (EGAC) |
| Time | Latitude | Longitude | Altitude | Speed | Heading |
|---|---|---|---|---|---|
| 2026-04-15 09:05 | 55.86708 | -4.43053 | 28 ft | 0 kts | 254° |
| 2026-04-15 09:17 | 55.86711 | -4.43027 | 27 ft | 4 kts | 259° |
| 2026-04-15 09:18 | 55.86713 | -4.42981 | 27 ft | 4 kts | 285° |
| 2026-04-15 09:18 | 55.86702 | -4.42949 | 29 ft | 2 kts | 342° |
| 2026-04-15 09:18 | 55.86700 | -4.42947 | 28 ft | 0 kts | 344° |
| 2026-04-15 09:20 | 55.86707 | -4.42951 | 25 ft | 3 kts | 344° |
| 2026-04-15 09:20 | 55.86747 | -4.42971 | 25 ft | 9 kts | 344° |
| 2026-04-15 09:20 | 55.86813 | -4.42999 | 25 ft | 10 kts | 357° |
| 2026-04-15 09:20 | 55.86884 | -4.42955 | 28 ft | 12 kts | 27° |
| 2026-04-15 09:21 | 55.86973 | -4.42874 | 25 ft | 14 kts | 27° |
| 2026-04-15 09:21 | 55.87063 | -4.42813 | 25 ft | 14 kts | 19° |
| 2026-04-15 09:21 | 55.87172 | -4.42744 | 28 ft | 19 kts | 20° |
| 2026-04-15 09:21 | 55.87307 | -4.42645 | 27 ft | 23 kts | 18° |
| 2026-04-15 09:22 | 55.87443 | -4.42495 | 25 ft | 23 kts | 48° |
| 2026-04-15 09:22 | 55.87543 | -4.42304 | 28 ft | 20 kts | 46° |
| 2026-04-15 09:22 | 55.87640 | -4.42155 | 26 ft | 17 kts | 13° |
| 2026-04-15 09:22 | 55.87743 | -4.42208 | 29 ft | 15 kts | 320° |
| 2026-04-15 09:23 | 55.87739 | -4.42314 | 27 ft | 12 kts | 226° |
| 2026-04-15 09:23 | 55.87495 | -4.42773 | 25 ft | 87 kts | 226° |
| 2026-04-15 09:23 | 55.86950 | -4.43774 | 169 ft | 125 kts | 225° |
| 2026-04-15 09:23 | 55.86321 | -4.44896 | 621 ft | 135 kts | 227° |
| 2026-04-15 09:24 | 55.85649 | -4.46152 | 1143 ft | 140 kts | 225° |
| 2026-04-15 09:24 | 55.84959 | -4.47413 | 1718 ft | 144 kts | 225° |
| 2026-04-15 09:24 | 55.84264 | -4.48683 | 2310 ft | 148 kts | 225° |
| 2026-04-15 09:24 | 55.83480 | -4.50083 | 2567 ft | 174 kts | 224° |
| 2026-04-15 09:25 | 55.82552 | -4.51693 | 2889 ft | 191 kts | 224° |
| 2026-04-15 09:25 | 55.81565 | -4.53364 | 3135 ft | 208 kts | 222° |
| 2026-04-15 09:25 | 55.80467 | -4.55211 | 3262 ft | 224 kts | 225° |
| 2026-04-15 09:25 | 55.79364 | -4.57197 | 3611 ft | 227 kts | 225° |
| 2026-04-15 09:26 | 55.78251 | -4.59199 | 3984 ft | 228 kts | 225° |
| 2026-04-15 09:26 | 55.77128 | -4.61193 | 4342 ft | 229 kts | 225° |
| 2026-04-15 09:26 | 55.75995 | -4.63191 | 4720 ft | 230 kts | 225° |
| 2026-04-15 09:26 | 55.74859 | -4.65200 | 5094 ft | 231 kts | 225° |
| 2026-04-15 09:27 | 55.73718 | -4.67216 | 5459 ft | 232 kts | 225° |
| 2026-04-15 09:27 | 55.72570 | -4.69235 | 5814 ft | 233 kts | 225° |
| 2026-04-15 09:27 | 55.71413 | -4.71261 | 6163 ft | 234 kts | 224° |
| 2026-04-15 09:27 | 55.70310 | -4.73391 | 6501 ft | 236 kts | 231° |
| 2026-04-15 09:28 | 55.69208 | -4.75524 | 6803 ft | 236 kts | 214° |
| 2026-04-15 09:28 | 55.67661 | -4.76427 | 7090 ft | 237 kts | 188° |
| 2026-04-15 09:28 | 55.66014 | -4.76626 | 7277 ft | 238 kts | 181° |
| 2026-04-15 09:28 | 55.64354 | -4.76630 | 7462 ft | 239 kts | 180° |
| 2026-04-15 09:29 | 55.62691 | -4.76622 | 7659 ft | 239 kts | 180° |
| 2026-04-15 09:29 | 55.61023 | -4.76649 | 7860 ft | 240 kts | 181° |
| 2026-04-15 09:29 | 55.59349 | -4.76734 | 8068 ft | 241 kts | 182° |
| 2026-04-15 09:29 | 55.57672 | -4.76828 | 8268 ft | 242 kts | 182° |
| 2026-04-15 09:30 | 55.55990 | -4.76926 | 8459 ft | 242 kts | 182° |
| 2026-04-15 09:30 | 55.54303 | -4.77021 | 8649 ft | 243 kts | 182° |
| 2026-04-15 09:30 | 55.52612 | -4.77121 | 8826 ft | 244 kts | 182° |
| 2026-04-15 09:30 | 55.50917 | -4.77218 | 9002 ft | 244 kts | 182° |
| 2026-04-15 09:31 | 55.49217 | -4.77312 | 9169 ft | 245 kts | 182° |
| 2026-04-15 09:31 | 55.47512 | -4.77413 | 9335 ft | 245 kts | 182° |
| 2026-04-15 09:31 | 55.45805 | -4.77510 | 9497 ft | 246 kts | 182° |
| 2026-04-15 09:31 | 55.44092 | -4.77609 | 9668 ft | 247 kts | 182° |
| 2026-04-15 09:32 | 55.42376 | -4.77708 | 9835 ft | 247 kts | 182° |
| 2026-04-15 09:32 | 55.40655 | -4.77804 | 9996 ft | 248 kts | 182° |
| 2026-04-15 09:32 | 55.38931 | -4.77904 | 10153 ft | 248 kts | 182° |
| 2026-04-15 09:32 | 55.37201 | -4.78003 | 10303 ft | 249 kts | 182° |
| 2026-04-15 09:33 | 55.35470 | -4.78099 | 10450 ft | 249 kts | 182° |
| 2026-04-15 09:33 | 55.33733 | -4.78200 | 10583 ft | 250 kts | 182° |
| 2026-04-15 09:33 | 55.31990 | -4.78297 | 10713 ft | 250 kts | 182° |
| 2026-04-15 09:33 | 55.30311 | -4.78937 | 10745 ft | 250 kts | 205° |
| 2026-04-15 09:34 | 55.28767 | -4.80370 | 10866 ft | 251 kts | 209° |
| 2026-04-15 09:34 | 55.27263 | -4.81860 | 10988 ft | 252 kts | 209° |
| 2026-04-15 09:34 | 55.25730 | -4.83347 | 11118 ft | 252 kts | 208° |
| 2026-04-15 09:34 | 55.24171 | -4.84762 | 11253 ft | 252 kts | 207° |
| 2026-04-15 09:35 | 55.22599 | -4.86138 | 11380 ft | 253 kts | 206° |
| 2026-04-15 09:35 | 55.21025 | -4.87521 | 11506 ft | 253 kts | 206° |
| 2026-04-15 09:35 | 55.19445 | -4.88911 | 11610 ft | 254 kts | 207° |
| 2026-04-15 09:35 | 55.17864 | -4.90306 | 11714 ft | 255 kts | 206° |
| 2026-04-15 09:36 | 55.16276 | -4.91680 | 11842 ft | 255 kts | 206° |
| 2026-04-15 09:36 | 55.14687 | -4.93064 | 11941 ft | 256 kts | 206° |
| 2026-04-15 09:36 | 55.13097 | -4.94458 | 12043 ft | 256 kts | 206° |
| 2026-04-15 09:36 | 55.11504 | -4.95847 | 12149 ft | 256 kts | 206° |
| 2026-04-15 09:37 | 55.09909 | -4.97239 | 12246 ft | 256 kts | 206° |
| 2026-04-15 09:37 | 55.08312 | -4.98630 | 12338 ft | 257 kts | 206° |
| 2026-04-15 09:37 | 55.06713 | -5.00027 | 12421 ft | 257 kts | 206° |
| 2026-04-15 09:37 | 55.05110 | -5.01417 | 12504 ft | 258 kts | 206° |
| 2026-04-15 09:38 | 55.03502 | -5.02816 | 12579 ft | 258 kts | 206° |
| 2026-04-15 09:38 | 55.01894 | -5.04212 | 12657 ft | 258 kts | 206° |
| 2026-04-15 09:38 | 55.00287 | -5.05606 | 12750 ft | 258 kts | 206° |
| 2026-04-15 09:38 | 54.98678 | -5.07003 | 12828 ft | 258 kts | 206° |
| 2026-04-15 09:39 | 54.97066 | -5.08395 | 12901 ft | 259 kts | 206° |
| 2026-04-15 09:39 | 54.95449 | -5.09796 | 12822 ft | 265 kts | 206° |
| 2026-04-15 09:39 | 54.93744 | -5.11270 | 12388 ft | 279 kts | 206° |
| 2026-04-15 09:39 | 54.92023 | -5.12763 | 11956 ft | 273 kts | 206° |
| 2026-04-15 09:40 | 54.90326 | -5.14151 | 11535 ft | 261 kts | 201° |
| 2026-04-15 09:40 | 54.88895 | -5.15940 | 11121 ft | 255 kts | 232° |
| 2026-04-15 09:40 | 54.87944 | -5.18505 | 10727 ft | 252 kts | 240° |
| 2026-04-15 09:40 | 54.87178 | -5.21229 | 10330 ft | 251 kts | 248° |
| 2026-04-15 09:41 | 54.86576 | -5.24076 | 9934 ft | 251 kts | 251° |
| 2026-04-15 09:41 | 54.86033 | -5.26959 | 9540 ft | 251 kts | 252° |
| 2026-04-15 09:41 | 54.85492 | -5.29833 | 9143 ft | 250 kts | 252° |
| 2026-04-15 09:41 | 54.84942 | -5.32689 | 8763 ft | 249 kts | 251° |
| 2026-04-15 09:42 | 54.84375 | -5.35515 | 8385 ft | 247 kts | 251° |
| 2026-04-15 09:42 | 54.84025 | -5.37385 | 8139 ft | 245 kts | 252° |
| 2026-04-15 09:42 | 54.83461 | -5.40170 | 7766 ft | 244 kts | 250° |
| 2026-04-15 09:42 | 54.82864 | -5.42919 | 7402 ft | 243 kts | 249° |
| 2026-04-15 09:43 | 54.82263 | -5.45650 | 7053 ft | 242 kts | 249° |
| 2026-04-15 09:43 | 54.81686 | -5.48379 | 6700 ft | 241 kts | 250° |
| 2026-04-15 09:43 | 54.81123 | -5.51106 | 6350 ft | 240 kts | 250° |
| 2026-04-15 09:43 | 54.80565 | -5.53823 | 5998 ft | 239 kts | 250° |
| 2026-04-15 09:44 | 54.80008 | -5.56532 | 5651 ft | 238 kts | 250° |
| 2026-04-15 09:44 | 54.79448 | -5.59228 | 5299 ft | 237 kts | 250° |
| 2026-04-15 09:44 | 54.78899 | -5.61919 | 4949 ft | 237 kts | 251° |
| 2026-04-15 09:44 | 54.78366 | -5.64616 | 4598 ft | 236 kts | 251° |
| 2026-04-15 09:45 | 54.77826 | -5.67294 | 4244 ft | 233 kts | 249° |
| 2026-04-15 09:45 | 54.76908 | -5.69534 | 3893 ft | 225 kts | 225° |
| 2026-04-15 09:45 | 54.75808 | -5.71159 | 3541 ft | 194 kts | 213° |
| 2026-04-15 09:45 | 54.74645 | -5.72417 | 3188 ft | 200 kts | 211° |
| 2026-04-15 09:46 | 54.73437 | -5.73655 | 2839 ft | 204 kts | 210° |
| 2026-04-15 09:46 | 54.72242 | -5.74858 | 2524 ft | 189 kts | 210° |
| 2026-04-15 09:46 | 54.71181 | -5.75956 | 2387 ft | 166 kts | 213° |
| 2026-04-15 09:46 | 54.70293 | -5.77039 | 2321 ft | 147 kts | 216° |
| 2026-04-15 09:47 | 54.69455 | -5.78107 | 1787 ft | 154 kts | 216° |
| 2026-04-15 09:47 | 54.68609 | -5.79127 | 1509 ft | 142 kts | 214° |
| 2026-04-15 09:47 | 54.67834 | -5.80033 | 1297 ft | 124 kts | 214° |
| 2026-04-15 09:47 | 54.67177 | -5.80812 | 1130 ft | 106 kts | 214° |
| 2026-04-15 09:48 | 54.66577 | -5.81528 | 992 ft | 110 kts | 214° |
| 2026-04-15 09:48 | 54.65948 | -5.82289 | 847 ft | 111 kts | 215° |
| 2026-04-15 09:48 | 54.65318 | -5.83048 | 729 ft | 109 kts | 215° |
| 2026-04-15 09:48 | 54.64692 | -5.83808 | 595 ft | 111 kts | 214° |
| 2026-04-15 09:49 | 54.64057 | -5.84567 | 449 ft | 112 kts | 215° |
| 2026-04-15 09:49 | 54.63414 | -5.85332 | 293 ft | 113 kts | 213° |
| 2026-04-15 09:49 | 54.62765 | -5.86106 | 119 ft | 114 kts | 215° |
| 2026-04-15 09:49 | 54.62127 | -5.86868 | 22 ft | 106 kts | 214° |
| 2026-04-15 09:50 | 54.61749 | -5.87321 | 21 ft | 46 kts | 214° |
| 2026-04-15 09:50 | 54.61514 | -5.87603 | 18 ft | 25 kts | 214° |
| 2026-04-15 09:50 | 54.61385 | -5.87756 | 18 ft | 20 kts | 213° |
| 2026-04-15 09:50 | 54.61304 | -5.87778 | 18 ft | 10 kts | 116° |
| 2026-04-15 09:51 | 54.61270 | -5.87686 | 19 ft | 9 kts | 126° |
| 2026-04-15 09:51 | 54.61258 | -5.87607 | 20 ft | 8 kts | 70° |
| 2026-04-15 09:51 | 54.61304 | -5.87542 | 20 ft | 9 kts | 34° |
| 2026-04-15 09:51 | 54.61358 | -5.87469 | 20 ft | 11 kts | 38° |
| 2026-04-15 09:52 | 54.61416 | -5.87372 | 20 ft | 12 kts | 49° |
| 2026-04-15 09:52 | 54.61430 | -5.87320 | 20 ft | 5 kts | 99° |
| 2026-04-15 09:52 | 54.61412 | -5.87265 | 20 ft | 1 kts | 125° |
| 2026-04-15 09:52 | 54.61410 | -5.87259 | 21 ft | 0 kts | 125° |